Time;durP1;ratioP1;P1;durP2;ratioP2;P2;SDS_P1;SDS_P2;PMS_P1;PMS_P2;Temp;Humidity;BMP_temperature;BMP_pressure;BME280_temperature;BME280_humidity;BME280_pressure;Samples;Min_cycle;Max_cycle;Signal;HPM_P1;HPM_P2
2023/08/21 00:03:31;;;;;;;7.32;3.95;;;;;;;;;;10288717;28;20077;-63
2023/08/21 00:08:29;;;;;;;11.88;5.05;;;;;;;;;;10290142;28;20506;-64
2023/08/21 00:13:29;;;;;;;7.45;4.85;;;;;;;;;;10291453;28;20454;-64
2023/08/21 00:18:27;;;;;;;8.88;4.28;;;;;;;;;;10290525;28;20068;-63
2023/08/21 00:23:26;;;;;;;7.97;4.00;;;;;;;;;;10287844;28;20108;-64
2023/08/21 00:28:24;;;;;;;5.72;4.13;;;;;;;;;;10288174;28;20071;-64
2023/08/21 00:33:24;;;;;;;9.93;4.93;;;;;;;;;;10292230;28;20505;-64
2023/08/21 00:38:22;;;;;;;8.85;3.97;;;;;;;;;;10268651;28;20077;-64
2023/08/21 00:43:21;;;;;;;6.07;3.55;;;;;;;;;;10286933;28;20080;-64
2023/08/21 00:48:19;;;;;;;5.95;3.90;;;;;;;;;;10287411;28;20060;-64
2023/08/21 00:53:19;;;;;;;4.75;4.25;;;;;;;;;;10294173;28;20065;-63
2023/08/21 00:58:18;;;;;;;8.20;3.70;;;;;;;;;;10296546;28;20068;-64
2023/08/21 01:03:16;;;;;;;4.70;4.28;;;;;;;;;;10297290;28;20079;-64
2023/08/21 01:08:17;;;;;;;5.20;3.80;;;;;;;;;;10294825;28;20060;-64
2023/08/21 01:13:22;;;;;;;4.47;4.07;;;;;;;;;;10296732;28;20084;-64
2023/08/21 01:18:21;;;;;;;8.77;4.55;;;;;;;;;;10298010;28;20040;-63
2023/08/21 01:23:32;;;;;;;8.70;4.38;;;;;;;;;;10278239;28;20522;-64
2023/08/21 01:28:31;;;;;;;9.45;3.97;;;;;;;;;;10291983;28;20075;-64
2023/08/21 01:33:30;;;;;;;9.07;4.65;;;;;;;;;;10296331;28;20044;-64
2023/08/21 01:38:28;;;;;;;7.45;3.85;;;;;;;;;;10277807;28;20041;-64
2023/08/21 01:43:28;;;;;;;10.23;4.93;;;;;;;;;;10295070;28;20076;-63
2023/08/21 01:48:26;;;;;;;7.80;5.63;;;;;;;;;;10293204;28;20453;-63
2023/08/21 01:53:24;;;;;;;8.88;4.90;;;;;;;;;;10281024;28;20485;-63
2023/08/21 01:58:22;;;;;;;5.68;4.63;;;;;;;;;;10295135;28;20083;-63
2023/08/21 02:03:22;;;;;;;7.85;4.57;;;;;;;;;;10277921;28;20510;-63
2023/08/21 02:08:20;;;;;;;8.88;4.68;;;;;;;;;;10294055;28;20536;-64
2023/08/21 02:13:20;;;;;;;4.55;4.13;;;;;;;;;;10283485;28;20370;-64
2023/08/21 02:18:19;;;;;;;6.72;4.68;;;;;;;;;;10279644;28;20095;-63
2023/08/21 02:23:18;;;;;;;5.47;4.38;;;;;;;;;;10291633;28;20080;-63
2023/08/21 02:28:16;;;;;;;10.02;4.57;;;;;;;;;;10292941;28;20079;-63
2023/08/21 02:33:15;;;;;;;6.00;4.32;;;;;;;;;;10291904;28;20076;-64
2023/08/21 02:38:14;;;;;;;10.30;4.50;;;;;;;;;;10289666;28;20473;-64
2023/08/21 02:43:14;;;;;;;9.30;5.55;;;;;;;;;;10291702;28;20069;-63
2023/08/21 02:48:12;;;;;;;9.50;4.68;;;;;;;;;;10289135;28;20526;-63
2023/08/21 02:53:10;;;;;;;7.50;3.38;;;;;;;;;;10291863;28;20076;-63
2023/08/21 02:58:09;;;;;;;5.22;3.72;;;;;;;;;;10291966;28;20467;-63
2023/08/21 03:03:11;;;;;;;6.70;3.70;;;;;;;;;;10288886;28;20104;-64
2023/08/21 03:08:09;;;;;;;11.60;4.28;;;;;;;;;;10292083;28;20061;-64
2023/08/21 03:13:08;;;;;;;7.65;3.83;;;;;;;;;;10284254;28;20072;-63
2023/08/21 03:18:09;;;;;;;6.95;3.75;;;;;;;;;;10279198;28;21016;-63
2023/08/21 03:23:08;;;;;;;4.70;3.88;;;;;;;;;;10279156;28;20084;-63
2023/08/21 03:28:07;;;;;;;7.68;3.65;;;;;;;;;;10288833;28;20075;-63
2023/08/21 03:33:05;;;;;;;13.45;4.82;;;;;;;;;;10272282;28;20446;-63
2023/08/21 03:38:04;;;;;;;4.60;4.18;;;;;;;;;;10286629;28;20080;-63
2023/08/21 03:43:12;;;;;;;9.93;4.03;;;;;;;;;;10284620;28;20092;-63
2023/08/21 03:48:11;;;;;;;10.45;5.07;;;;;;;;;;10272315;28;20081;-64
2023/08/21 03:53:09;;;;;;;11.38;4.03;;;;;;;;;;10292666;28;20681;-63
2023/08/21 03:58:08;;;;;;;6.82;4.15;;;;;;;;;;10270803;28;20077;-64
2023/08/21 04:03:07;;;;;;;7.95;4.43;;;;;;;;;;10290713;28;20067;-64
2023/08/21 04:08:06;;;;;;;7.43;3.97;;;;;;;;;;10290979;28;20098;-63
2023/08/21 04:13:06;;;;;;;9.20;4.53;;;;;;;;;;10289187;28;20068;-64
2023/08/21 04:18:06;;;;;;;8.35;4.85;;;;;;;;;;10273964;28;20072;-64
2023/08/21 04:23:07;;;;;;;6.57;4.50;;;;;;;;;;10291884;28;20544;-64
2023/08/21 04:28:07;;;;;;;6.13;4.93;;;;;;;;;;10277081;28;20085;-63
2023/08/21 04:33:06;;;;;;;7.22;3.90;;;;;;;;;;10298006;28;20075;-62
2023/08/21 04:38:04;;;;;;;8.38;4.25;;;;;;;;;;10299399;28;20548;-62
2023/08/21 04:43:04;;;;;;;8.02;5.10;;;;;;;;;;10281983;28;20068;-63
2023/08/21 04:48:04;;;;;;;9.95;4.53;;;;;;;;;;10296782;28;20064;-63
2023/08/21 04:53:03;;;;;;;10.77;5.28;;;;;;;;;;10297896;28;20068;-64
2023/08/21 04:58:04;;;;;;;10.55;4.28;;;;;;;;;;10276874;28;20087;-64
2023/08/21 05:03:03;;;;;;;11.80;4.55;;;;;;;;;;10283721;28;20076;-64
2023/08/21 05:08:01;;;;;;;7.10;4.75;;;;;;;;;;10297719;28;20076;-64
2023/08/21 05:13:00;;;;;;;15.07;5.18;;;;;;;;;;10296228;28;20076;-63
2023/08/21 05:18:00;;;;;;;13.88;5.50;;;;;;;;;;10295380;28;20071;-63
2023/08/21 05:22:58;;;;;;;13.20;5.70;;;;;;;;;;10292243;28;20088;-64
2023/08/21 05:27:56;;;;;;;9.20;5.38;;;;;;;;;;10296703;28;20072;-62
2023/08/21 05:32:55;;;;;;;5.68;4.85;;;;;;;;;;10296200;28;20556;-63
2023/08/21 05:37:55;;;;;;;9.45;5.50;;;;;;;;;;10271225;28;20072;-63
2023/08/21 05:42:54;;;;;;;6.70;5.05;;;;;;;;;;10289883;28;20103;-62
2023/08/21 05:47:53;;;;;;;11.13;5.97;;;;;;;;;;10290604;28;20080;-62
2023/08/21 05:52:51;;;;;;;11.50;6.80;;;;;;;;;;10296362;28;20072;-63
2023/08/21 05:57:53;;;;;;;12.93;5.75;;;;;;;;;;10293655;28;20467;-63
2023/08/21 06:02:51;;;;;;;9.25;5.63;;;;;;;;;;10291905;28;20068;-63
2023/08/21 06:08:19;;;;;;;10.40;7.03;;;;;;;;;;10280128;28;20092;-63
2023/08/21 06:13:19;;;;;;;9.90;6.60;;;;;;;;;;10281793;28;20080;-62
2023/08/21 06:18:21;;;;;;;12.38;7.68;;;;;;;;;;10305136;28;20079;-63
2023/08/21 06:23:19;;;;;;;11.63;6.00;;;;;;;;;;10286259;28;20080;-63
2023/08/21 06:28:18;;;;;;;10.32;7.72;;;;;;;;;;10279863;28;20088;-64
2023/08/21 06:33:17;;;;;;;8.85;8.05;;;;;;;;;;10289547;28;20069;-63
2023/08/21 06:38:15;;;;;;;13.00;6.72;;;;;;;;;;10281776;28;20072;-63
2023/08/21 06:43:14;;;;;;;9.75;6.38;;;;;;;;;;10272622;28;20482;-62
2023/08/21 06:48:19;;;;;;;9.95;5.82;;;;;;;;;;10277399;28;20075;-63
2023/08/21 06:53:17;;;;;;;13.32;8.27;;;;;;;;;;10278834;28;20098;-63
2023/08/21 06:58:15;;;;;;;11.73;6.57;;;;;;;;;;10286151;28;20080;-63
2023/08/21 07:03:13;;;;;;;8.32;6.57;;;;;;;;;;10280338;28;20088;-63
2023/08/21 07:08:13;;;;;;;17.67;10.60;;;;;;;;;;10283866;28;20095;-62
2023/08/21 07:13:14;;;;;;;9.25;6.63;;;;;;;;;;10283130;28;20071;-63
2023/08/21 07:18:12;;;;;;;7.25;5.90;;;;;;;;;;10291276;28;20072;-63
2023/08/21 07:23:11;;;;;;;10.40;6.63;;;;;;;;;;10280835;28;20104;-63
2023/08/21 07:28:11;;;;;;;11.50;6.68;;;;;;;;;;10274987;28;20080;-62
2023/08/21 07:33:09;;;;;;;14.85;7.18;;;;;;;;;;10285733;28;20513;-63
2023/08/21 07:38:07;;;;;;;12.15;6.40;;;;;;;;;;10284109;28;20064;-63
2023/08/21 07:43:05;;;;;;;11.77;7.00;;;;;;;;;;10281636;28;20065;-63
2023/08/21 07:48:05;;;;;;;9.52;6.32;;;;;;;;;;10288930;28;20067;-63
2023/08/21 07:53:12;;;;;;;8.45;5.93;;;;;;;;;;10286920;28;20071;-63
2023/08/21 07:58:10;;;;;;;11.32;5.78;;;;;;;;;;10290666;28;20084;-64
2023/08/21 08:03:10;;;;;;;9.45;5.88;;;;;;;;;;10288886;28;20079;-63
2023/08/21 08:08:09;;;;;;;13.50;7.57;;;;;;;;;;10287585;28;20081;-63
2023/08/21 08:13:07;;;;;;;7.85;6.47;;;;;;;;;;10289549;28;20072;-63
2023/08/21 08:18:07;;;;;;;8.05;5.65;;;;;;;;;;10290536;28;20501;-63
2023/08/21 08:23:06;;;;;;;9.00;5.88;;;;;;;;;;10289320;28;20087;-64
2023/08/21 08:28:05;;;;;;;11.68;6.18;;;;;;;;;;10288818;28;20076;-64
2023/08/21 08:33:03;;;;;;;12.50;6.22;;;;;;;;;;10291732;28;20065;-63
2023/08/21 08:38:02;;;;;;;11.07;6.20;;;;;;;;;;10291627;28;20072;-64
2023/08/21 08:43:01;;;;;;;14.68;6.82;;;;;;;;;;10290541;28;20102;-64
2023/08/21 08:48:01;;;;;;;12.60;5.82;;;;;;;;;;10289384;28;20483;-64
2023/08/21 08:53:00;;;;;;;9.40;6.38;;;;;;;;;;10290031;28;20076;-65
2023/08/21 08:58:13;;;;;;;9.60;5.90;;;;;;;;;;10289802;28;20068;-65
2023/08/21 09:03:12;;;;;;;9.23;6.03;;;;;;;;;;10289978;28;20088;-64
2023/08/21 09:08:11;;;;;;;8.18;5.90;;;;;;;;;;10289163;28;20079;-64
2023/08/21 09:13:15;;;;;;;8.18;5.53;;;;;;;;;;10291098;28;20068;-64
2023/08/21 09:18:14;;;;;;;11.45;5.50;;;;;;;;;;10294428;28;20076;-64
2023/08/21 09:23:14;;;;;;;13.07;6.15;;;;;;;;;;10292882;28;20084;-63
2023/08/21 09:28:13;;;;;;;12.73;6.13;;;;;;;;;;10293829;28;20079;-61
2023/08/21 09:33:12;;;;;;;7.97;5.55;;;;;;;;;;10297169;28;20072;-62
2023/08/21 09:38:11;;;;;;;6.22;5.40;;;;;;;;;;10295017;28;20088;-63
2023/08/21 09:43:10;;;;;;;7.63;5.53;;;;;;;;;;10296218;28;20075;-62
2023/08/21 09:48:08;;;;;;;9.52;5.60;;;;;;;;;;10292142;28;20084;-62
2023/08/21 09:53:08;;;;;;;11.70;5.40;;;;;;;;;;10289880;28;20071;-62
2023/08/21 09:58:07;;;;;;;11.93;6.43;;;;;;;;;;10293402;28;20088;-62
2023/08/21 10:03:07;;;;;;;7.78;5.13;;;;;;;;;;10294419;28;20068;-62
2023/08/21 10:08:06;;;;;;;9.48;5.18;;;;;;;;;;10293775;28;20072;-63
2023/08/21 10:13:07;;;;;;;9.45;5.55;;;;;;;;;;10288802;28;20067;-63
2023/08/21 10:18:23;;;;;;;8.38;5.60;;;;;;;;;;10292245;28;20060;-64
2023/08/21 10:23:25;;;;;;;10.82;6.15;;;;;;;;;;10290390;28;20089;-63
2023/08/21 10:28:25;;;;;;;11.65;4.88;;;;;;;;;;10286429;28;20077;-63
2023/08/21 10:33:37;;;;;;;8.77;5.30;;;;;;;;;;10291703;28;20081;-62
2023/08/21 10:38:56;;;;;;;8.95;4.80;;;;;;;;;;10291857;28;20060;-63
2023/08/21 10:43:55;;;;;;;9.18;4.78;;;;;;;;;;10293807;28;20083;-62
2023/08/21 10:48:53;;;;;;;8.05;5.35;;;;;;;;;;10375357;28;20068;-61
2023/08/21 10:53:52;;;;;;;7.72;4.72;;;;;;;;;;10371427;28;20094;-63
2023/08/21 10:58:51;;;;;;;6.72;5.05;;;;;;;;;;10371367;28;20067;-63
2023/08/21 11:03:52;;;;;;;9.95;4.90;;;;;;;;;;10372478;28;20063;-63
2023/08/21 11:08:50;;;;;;;8.10;4.72;;;;;;;;;;10372570;28;20086;-61
2023/08/21 11:13:53;;;;;;;5.85;5.13;;;;;;;;;;10372939;28;20064;-60
2023/08/21 11:18:53;;;;;;;6.22;4.55;;;;;;;;;;10374448;28;20068;-62
2023/08/21 11:23:53;;;;;;;7.10;4.90;;;;;;;;;;10372226;28;20516;-62
2023/08/21 11:28:52;;;;;;;4.00;3.60;;;;;;;;;;10371959;28;20090;-63
2023/08/21 11:33:50;;;;;;;9.60;4.75;;;;;;;;;;10371827;28;20103;-63
2023/08/21 11:39:08;;;;;;;7.22;4.80;;;;;;;;;;10368950;28;20086;-62
2023/08/21 11:44:08;;;;;;;8.10;4.05;;;;;;;;;;10371414;28;20481;-62
2023/08/21 11:49:07;;;;;;;7.97;3.90;;;;;;;;;;10371008;28;20067;-63
2023/08/21 11:54:05;;;;;;;7.22;4.47;;;;;;;;;;10373023;28;20067;-62
2023/08/21 11:59:04;;;;;;;8.73;4.68;;;;;;;;;;10371470;28;20491;-63
2023/08/21 12:04:14;;;;;;;4.68;3.90;;;;;;;;;;10372368;28;20075;-63
2023/08/21 12:09:13;;;;;;;5.65;5.13;;;;;;;;;;10370187;28;20079;-64
2023/08/21 12:14:11;;;;;;;9.30;5.35;;;;;;;;;;10371360;28;20102;-63
2023/08/21 12:19:11;;;;;;;6.70;4.43;;;;;;;;;;10366959;28;20516;-62
2023/08/21 12:24:10;;;;;;;5.85;4.10;;;;;;;;;;10369059;28;20084;-62
2023/08/21 12:29:08;;;;;;;11.68;4.53;;;;;;;;;;10367568;28;20075;-62
2023/08/21 12:34:06;;;;;;;6.60;5.32;;;;;;;;;;10371152;28;20086;-62
2023/08/21 12:39:06;;;;;;;6.53;3.72;;;;;;;;;;10370165;28;20138;-62
2023/08/21 12:44:04;;;;;;;7.30;4.13;;;;;;;;;;10365228;28;20094;-62
2023/08/21 12:49:03;;;;;;;5.82;5.22;;;;;;;;;;10371055;28;20075;-62
2023/08/21 12:54:01;;;;;;;14.35;5.38;;;;;;;;;;10376268;28;20072;-63
2023/08/21 12:59:01;;;;;;;6.82;5.82;;;;;;;;;;10372097;28;20078;-63
2023/08/21 13:03:59;;;;;;;7.57;6.63;;;;;;;;;;10378165;28;20070;-63
2023/08/21 13:08:58;;;;;;;7.57;4.43;;;;;;;;;;10375091;28;20087;-63
2023/08/21 13:13:58;;;;;;;5.32;4.65;;;;;;;;;;10373147;28;20086;-62
2023/08/21 13:18:58;;;;;;;9.38;5.03;;;;;;;;;;10375792;28;20566;-63
2023/08/21 13:23:56;;;;;;;5.15;4.63;;;;;;;;;;10373686;28;20075;-63
2023/08/21 13:28:55;;;;;;;6.28;4.57;;;;;;;;;;10376809;28;20086;-62
2023/08/21 13:33:53;;;;;;;5.47;4.18;;;;;;;;;;10378715;28;20097;-62
2023/08/21 13:38:53;;;;;;;8.82;4.43;;;;;;;;;;10370667;28;20083;-63
2023/08/21 13:43:51;;;;;;;5.93;4.57;;;;;;;;;;10378153;28;20360;-63
2023/08/21 13:48:52;;;;;;;5.70;3.88;;;;;;;;;;10375713;28;20078;-62
2023/08/21 13:53:50;;;;;;;10.55;4.90;;;;;;;;;;10376288;28;20067;-63
2023/08/21 13:58:50;;;;;;;8.55;5.07;;;;;;;;;;10376309;28;20063;-62
2023/08/21 14:03:48;;;;;;;13.50;5.88;;;;;;;;;;10378098;28;20071;-61
2023/08/21 14:08:47;;;;;;;12.02;4.57;;;;;;;;;;10371951;28;20094;-62
2023/08/21 14:13:45;;;;;;;4.72;4.22;;;;;;;;;;10376215;28;20473;-62
2023/08/21 14:18:45;;;;;;;7.03;4.70;;;;;;;;;;10372778;28;20098;-62
2023/08/21 14:23:43;;;;;;;7.00;4.55;;;;;;;;;;10359022;28;20095;-62
2023/08/21 14:28:41;;;;;;;9.32;4.97;;;;;;;;;;10365577;28;21057;-62
2023/08/21 14:33:39;;;;;;;9.43;5.05;;;;;;;;;;10359124;28;20059;-61
2023/08/21 14:38:39;;;;;;;12.60;5.65;;;;;;;;;;10365815;28;20078;-62
2023/08/21 14:43:37;;;;;;;7.88;4.30;;;;;;;;;;10363078;28;20063;-62
2023/08/21 14:48:36;;;;;;;13.30;6.15;;;;;;;;;;10366257;28;20075;-62
2023/08/21 14:53:34;;;;;;;7.82;5.32;;;;;;;;;;10369561;28;20070;-62
2023/08/21 14:58:33;;;;;;;8.15;6.53;;;;;;;;;;10376064;28;20114;-62
2023/08/21 15:03:32;;;;;;;18.10;13.45;;;;;;;;;;10368675;28;20472;-62
2023/08/21 15:08:30;;;;;;;11.52;5.85;;;;;;;;;;10376191;28;20083;-62
2023/08/21 15:13:28;;;;;;;12.43;5.43;;;;;;;;;;10373949;28;20071;-62
2023/08/21 15:18:28;;;;;;;10.05;5.82;;;;;;;;;;10372175;28;20075;-62
2023/08/21 15:23:26;;;;;;;5.68;5.18;;;;;;;;;;10366494;28;20110;-62
2023/08/21 15:28:25;;;;;;;8.88;7.85;;;;;;;;;;10360445;28;20481;-62
2023/08/21 15:33:23;;;;;;;13.75;9.30;;;;;;;;;;10359672;28;20086;-63
2023/08/21 15:38:23;;;;;;;16.60;6.47;;;;;;;;;;10363173;28;20063;-62
2023/08/21 15:43:21;;;;;;;10.35;6.97;;;;;;;;;;10364973;28;20071;-62
2023/08/21 15:48:20;;;;;;;17.63;6.65;;;;;;;;;;10369455;28;20902;-62
2023/08/21 15:53:18;;;;;;;9.18;5.28;;;;;;;;;;10373081;28;20074;-63
2023/08/21 15:58:18;;;;;;;8.85;6.10;;;;;;;;;;10351735;28;20071;-63
2023/08/21 16:03:16;;;;;;;21.45;8.80;;;;;;;;;;10352549;28;20493;-62
2023/08/21 16:08:14;;;;;;;8.38;5.20;;;;;;;;;;10356029;28;20078;-62
2023/08/21 16:13:13;;;;;;;16.00;7.45;;;;;;;;;;10364698;28;20086;-63
2023/08/21 16:18:12;;;;;;;9.75;6.35;;;;;;;;;;10370697;28;20071;-63
2023/08/21 16:23:10;;;;;;;12.82;7.20;;;;;;;;;;10363258;28;20760;-63
2023/08/21 16:28:10;;;;;;;11.73;6.47;;;;;;;;;;10356965;28;20067;-60
2023/08/21 16:33:12;;;;;;;11.80;6.68;;;;;;;;;;10362256;28;20127;-62
2023/08/21 16:38:25;;;;;;;13.25;5.35;;;;;;;;;;10345574;28;20075;-62
2023/08/21 16:43:23;;;;;;;7.40;6.13;;;;;;;;;;10357337;28;20174;-62
2023/08/21 16:48:23;;;;;;;11.20;6.50;;;;;;;;;;10360044;28;20075;-63
2023/08/21 16:53:21;;;;;;;13.35;7.25;;;;;;;;;;10354470;28;20457;-62
2023/08/21 16:58:21;;;;;;;8.75;6.53;;;;;;;;;;10369480;28;20060;-62
2023/08/21 17:03:19;;;;;;;12.13;6.35;;;;;;;;;;10365265;28;20071;-63
2023/08/21 17:08:19;;;;;;;14.00;5.93;;;;;;;;;;10356419;28;20476;-62
2023/08/21 17:13:18;;;;;;;8.48;6.05;;;;;;;;;;10356564;28;20060;-63
2023/08/21 17:18:16;;;;;;;12.00;6.38;;;;;;;;;;10365644;28;20075;-62
2023/08/21 17:23:14;;;;;;;10.85;6.75;;;;;;;;;;10361478;28;20496;-62
2023/08/21 17:28:14;;;;;;;12.70;7.75;;;;;;;;;;10349805;28;20091;-63
2023/08/21 17:33:15;;;;;;;13.57;7.47;;;;;;;;;;10332699;28;20075;-61
2023/08/21 17:38:16;;;;;;;8.75;6.03;;;;;;;;;;10353699;28;20078;-62
2023/08/21 17:43:15;;;;;;;9.38;6.95;;;;;;;;;;10372389;28;20072;-62
2023/08/21 17:48:14;;;;;;;13.85;5.78;;;;;;;;;;10377145;28;20084;-62
2023/08/21 17:53:12;;;;;;;15.15;7.50;;;;;;;;;;10376574;27;20070;-62
2023/08/21 17:58:10;;;;;;;16.15;7.65;;;;;;;;;;10370061;27;20079;-63
2023/08/21 18:03:10;;;;;;;10.88;7.50;;;;;;;;;;10371851;28;20067;-62
2023/08/21 18:08:08;;;;;;;8.98;7.30;;;;;;;;;;10363587;28;20105;-62
2023/08/21 18:13:07;;;;;;;13.85;6.47;;;;;;;;;;10371801;28;20066;-62
2023/08/21 18:18:06;;;;;;;13.95;8.40;;;;;;;;;;10376537;27;20071;-63
2023/08/21 18:23:06;;;;;;;15.30;6.90;;;;;;;;;;10373354;28;20501;-63
2023/08/21 18:28:06;;;;;;;8.30;7.10;;;;;;;;;;10368165;28;20492;-62
2023/08/21 18:33:04;;;;;;;8.43;7.18;;;;;;;;;;10369247;27;20070;-62
2023/08/21 18:38:02;;;;;;;14.65;6.95;;;;;;;;;;10367824;28;20492;-62
2023/08/21 18:43:02;;;;;;;11.20;7.32;;;;;;;;;;10373827;28;20071;-63
2023/08/21 18:48:00;;;;;;;10.80;6.13;;;;;;;;;;10361635;28;20505;-62
2023/08/21 18:52:59;;;;;;;12.27;7.50;;;;;;;;;;10374024;28;20076;-62
2023/08/21 18:57:57;;;;;;;13.00;6.25;;;;;;;;;;10366173;27;20098;-62
2023/08/21 19:02:57;;;;;;;9.75;8.02;;;;;;;;;;10348553;28;20523;-63
2023/08/21 19:07:57;;;;;;;12.35;7.90;;;;;;;;;;10357979;28;20074;-62
2023/08/21 19:12:55;;;;;;;13.93;7.15;;;;;;;;;;10361947;28;20063;-62
2023/08/21 19:17:54;;;;;;;15.43;9.05;;;;;;;;;;10358026;28;20067;-62
2023/08/21 19:22:54;;;;;;;14.35;8.75;;;;;;;;;;10366214;28;20163;-63
2023/08/21 19:27:52;;;;;;;20.83;9.52;;;;;;;;;;10374483;28;20089;-62
2023/08/21 19:32:50;;;;;;;14.52;8.23;;;;;;;;;;10365995;28;20067;-63
2023/08/21 19:37:48;;;;;;;13.73;7.68;;;;;;;;;;10371969;28;20456;-63
2023/08/21 19:42:48;;;;;;;13.00;7.88;;;;;;;;;;10373313;28;20079;-63
2023/08/21 19:47:46;;;;;;;14.27;8.55;;;;;;;;;;10368746;28;20607;-63
2023/08/21 19:52:45;;;;;;;14.02;8.18;;;;;;;;;;10361417;28;20076;-62
2023/08/21 19:57:43;;;;;;;12.15;7.40;;;;;;;;;;10365095;28;20063;-60
2023/08/21 20:02:43;;;;;;;13.93;7.53;;;;;;;;;;10367743;27;20063;-62
2023/08/21 20:07:41;;;;;;;13.95;7.22;;;;;;;;;;10356784;28;20068;-61
2023/08/21 20:12:40;;;;;;;9.95;5.88;;;;;;;;;;10371378;28;20068;-62
2023/08/21 20:17:38;;;;;;;9.57;7.72;;;;;;;;;;10365055;28;20624;-63
2023/08/21 20:22:38;;;;;;;16.55;6.85;;;;;;;;;;10364350;28;20090;-63
2023/08/21 20:27:36;;;;;;;21.30;7.35;;;;;;;;;;10363584;28;20067;-63
2023/08/21 20:32:35;;;;;;;9.07;6.80;;;;;;;;;;10367486;28;20080;-63
2023/08/21 20:37:33;;;;;;;9.70;5.97;;;;;;;;;;10367930;28;20082;-63
2023/08/21 20:42:33;;;;;;;6.97;6.28;;;;;;;;;;10370360;28;20067;-63
2023/08/21 20:47:32;;;;;;;6.25;5.40;;;;;;;;;;10369998;28;20060;-62
2023/08/21 20:52:30;;;;;;;12.35;6.20;;;;;;;;;;10368866;28;20122;-64
2023/08/21 20:57:28;;;;;;;10.85;5.32;;;;;;;;;;10369458;28;20063;-63
2023/08/21 21:02:29;;;;;;;11.55;5.38;;;;;;;;;;10367654;28;20079;-63
2023/08/21 21:07:28;;;;;;;8.82;4.78;;;;;;;;;;10372448;28;20068;-62
2023/08/21 21:12:26;;;;;;;10.98;5.75;;;;;;;;;;10379254;28;20076;-62
2023/08/21 21:17:24;;;;;;;5.93;5.32;;;;;;;;;;10376578;28;20563;-61
2023/08/21 21:22:24;;;;;;;10.63;5.28;;;;;;;;;;10372982;28;20074;-61
2023/08/21 21:27:22;;;;;;;17.67;6.50;;;;;;;;;;10375202;28;20135;-62
2023/08/21 21:32:21;;;;;;;9.98;6.57;;;;;;;;;;10376598;28;20079;-63
2023/08/21 21:37:19;;;;;;;15.57;7.55;;;;;;;;;;10374068;28;20473;-63
2023/08/21 21:42:18;;;;;;;15.02;6.68;;;;;;;;;;10375788;28;20055;-63
2023/08/21 21:47:16;;;;;;;12.48;6.93;;;;;;;;;;10375459;28;20516;-63
2023/08/21 21:52:15;;;;;;;12.35;7.72;;;;;;;;;;10376042;28;20075;-62
2023/08/21 21:57:13;;;;;;;15.02;7.70;;;;;;;;;;10379690;28;20454;-63
2023/08/21 22:02:13;;;;;;;13.77;8.02;;;;;;;;;;10376714;28;20519;-61
2023/08/21 22:07:11;;;;;;;13.07;7.65;;;;;;;;;;10378927;28;20063;-62
2023/08/21 22:12:13;;;;;;;10.85;8.20;;;;;;;;;;10379143;28;20067;-62
2023/08/21 22:17:13;;;;;;;11.88;7.78;;;;;;;;;;10378239;28;20114;-62
2023/08/21 22:22:11;;;;;;;11.93;7.88;;;;;;;;;;10377250;28;20067;-62
2023/08/21 22:27:09;;;;;;;16.10;7.72;;;;;;;;;;10361275;28;20039;-62
2023/08/21 22:32:07;;;;;;;11.30;6.53;;;;;;;;;;10374822;28;20079;-62
2023/08/21 22:37:07;;;;;;;13.95;6.22;;;;;;;;;;10377230;28;20063;-62
2023/08/21 22:42:05;;;;;;;9.63;5.68;;;;;;;;;;10378141;27;20098;-62
2023/08/21 22:47:04;;;;;;;12.63;5.63;;;;;;;;;;10375909;28;20466;-62
2023/08/21 22:52:02;;;;;;;6.63;5.30;;;;;;;;;;10377245;28;20082;-62
2023/08/21 22:57:02;;;;;;;6.55;5.40;;;;;;;;;;10370721;28;20070;-62
2023/08/21 23:02:00;;;;;;;9.88;5.90;;;;;;;;;;10374335;28;20543;-62
2023/08/21 23:06:58;;;;;;;9.15;6.07;;;;;;;;;;10372485;28;20084;-62
2023/08/21 23:11:57;;;;;;;8.50;6.50;;;;;;;;;;10370978;28;20079;-61
2023/08/21 23:16:56;;;;;;;14.32;6.78;;;;;;;;;;10373549;28;20060;-61
2023/08/21 23:21:54;;;;;;;9.60;7.13;;;;;;;;;;10372296;28;20079;-62
2023/08/21 23:26:53;;;;;;;9.52;7.00;;;;;;;;;;10371574;28;20598;-62
2023/08/21 23:31:51;;;;;;;10.05;6.68;;;;;;;;;;10375567;28;20079;-63
2023/08/21 23:36:50;;;;;;;11.65;6.82;;;;;;;;;;10374852;28;20040;-62
2023/08/21 23:41:49;;;;;;;9.50;6.82;;;;;;;;;;10371852;28;20075;-62
2023/08/21 23:46:47;;;;;;;8.88;6.35;;;;;;;;;;10372473;28;20078;-61
2023/08/21 23:51:45;;;;;;;16.05;7.43;;;;;;;;;;10373045;27;20071;-62
2023/08/21 23:56:45;;;;;;;8.30;6.25;;;;;;;;;;10373770;28;20075;-62
